Time,TemperatureF,DewpointF,PressureIn,WindDirection,WindDirectionDegrees,WindSpeedMPH,WindSpeedGustMPH,Humidity,HourlyPrecipIn,Conditions,Clouds,dailyrainin,SoftwareType,DateUTC
2013-02-20 00:09:00,65.5,58.0,30.08,WSW,251,0.0,-999.0,77,-99.99,,,0.00,weatherlink.com 1.10,2013-02-20 05:09:00,
2013-02-20 00:24:00,65.3,59.0,30.08,WSW,251,1.0,-999.0,79,-99.99,,,0.00,weatherlink.com 1.10,2013-02-20 05:24:00,
2013-02-20 00:39:00,65.5,59.0,30.09,WSW,251,1.0,-999.0,79,-99.99,,,0.00,weatherlink.com 1.10,2013-02-20 05:39:00,
2013-02-20 00:54:00,65.4,59.0,30.09,WSW,251,5.0,-999.0,79,-99.99,,,0.00,weatherlink.com 1.10,2013-02-20 05:54:00,
2013-02-20 01:09:00,65.5,59.0,30.09,WSW,251,4.0,-999.0,80,-99.99,,,0.00,weatherlink.com 1.10,2013-02-20 06:09:00,
2013-02-20 01:24:00,65.5,60.0,30.09,WSW,254,0.0,-999.0,81,-99.99,,,0.00,weatherlink.com 1.10,2013-02-20 06:24:00,
2013-02-20 01:39:00,65.2,60.0,30.08,WSW,254,1.0,-999.0,82,-99.99,,,0.00,weatherlink.com 1.10,2013-02-20 06:39:00,
2013-02-20 01:54:00,64.8,60.0,30.07,WSW,254,1.0,-999.0,83,-99.99,,,0.00,weatherlink.com 1.10,2013-02-20 06:54:00,
2013-02-20 02:09:00,64.6,60.0,30.07,WSW,254,2.0,-999.0,84,-99.99,,,0.00,weatherlink.com 1.10,2013-02-20 07:09:00,
2013-02-20 02:24:00,64.3,60.0,30.08,WSW,254,1.0,-999.0,85,-99.99,,,0.00,weatherlink.com 1.10,2013-02-20 07:24:00,
2013-02-20 02:39:00,64.2,60.0,30.08,WSW,254,0.0,-999.0,86,-99.99,,,0.00,weatherlink.com 1.10,2013-02-20 07:39:00,
2013-02-20 03:09:00,64.1,60.0,30.07,WSW,254,1.0,-999.0,87,-99.99,,,0.00,weatherlink.com 1.10,2013-02-20 08:09:00,
2013-02-20 03:24:00,64.2,60.0,30.07,SW,235,2.0,-999.0,87,-99.99,,,0.00,weatherlink.com 1.10,2013-02-20 08:24:00,
2013-02-20 03:39:00,63.7,60.0,30.07,West,273,1.0,-999.0,88,-99.99,,,0.00,weatherlink.com 1.10,2013-02-20 08:39:00,
2013-02-20 03:54:00,63.6,60.0,30.07,West,273,1.0,-999.0,89,-99.99,,,0.00,weatherlink.com 1.10,2013-02-20 08:54:00,
2013-02-20 04:09:00,63.6,60.0,30.07,West,273,0.0,-999.0,89,-99.99,,,0.00,weatherlink.com 1.10,2013-02-20 09:09:00,
2013-02-20 04:24:00,63.7,61.0,30.07,West,278,0.0,-999.0,89,-99.99,,,0.00,weatherlink.com 1.10,2013-02-20 09:24:00,
2013-02-20 04:39:00,63.7,61.0,30.07,WNW,282,5.0,-999.0,89,-99.99,,,0.00,weatherlink.com 1.10,2013-02-20 09:39:00,
2013-02-20 04:54:00,63.4,60.0,30.08,WNW,283,2.0,-999.0,89,-99.99,,,0.00,weatherlink.com 1.10,2013-02-20 09:54:00,
2013-02-20 05:09:00,63.4,60.0,30.08,WNW,283,0.0,-999.0,89,-99.99,,,0.00,weatherlink.com 1.10,2013-02-20 10:09:00,
2013-02-20 05:24:00,63.2,60.0,30.08,WNW,285,0.0,-999.0,90,-99.99,,,0.00,weatherlink.com 1.10,2013-02-20 10:24:00,
2013-02-20 05:39:00,63.2,60.0,30.09,WNW,296,2.0,-999.0,90,-99.99,,,0.00,weatherlink.com 1.10,2013-02-20 10:39:00,
2013-02-20 05:54:00,62.9,60.0,30.09,NE,46,5.0,-999.0,90,-99.99,,,0.00,weatherlink.com 1.10,2013-02-20 10:54:00,
2013-02-20 06:09:00,62.6,60.0,30.09,NE,36,2.0,-999.0,90,-99.99,,,0.00,weatherlink.com 1.10,2013-02-20 11:09:00,
2013-02-20 06:24:00,62.3,59.0,30.10,NE,51,4.0,-999.0,90,-99.99,,,0.00,weatherlink.com 1.10,2013-02-20 11:24:00,
2013-02-20 06:39:00,62.0,59.0,30.11,ENE,61,5.0,-999.0,90,-99.99,,,0.00,weatherlink.com 1.10,2013-02-20 11:39:00,
2013-02-20 06:54:00,61.9,59.0,30.11,ENE,63,2.0,-999.0,90,-99.99,,,0.00,weatherlink.com 1.10,2013-02-20 11:54:00,
2013-02-20 07:09:00,61.7,59.0,30.11,NE,40,5.0,-999.0,89,-99.99,,,0.00,weatherlink.com 1.10,2013-02-20 12:09:00,
2013-02-20 07:24:00,61.7,59.0,30.11,NE,45,6.0,-999.0,89,-99.99,,,0.00,weatherlink.com 1.10,2013-02-20 12:24:00,
2013-02-20 07:39:00,61.8,58.0,30.12,ENE,66,5.0,-999.0,87,-99.99,,,0.00,weatherlink.com 1.10,2013-02-20 12:39:00,
2013-02-20 07:54:00,62.0,58.0,30.12,NE,39,7.0,-999.0,85,-99.99,,,0.00,weatherlink.com 1.10,2013-02-20 12:54:00,
2013-02-20 08:10:00,62.1,56.0,30.12,NE,42,3.0,-999.0,79,-99.99,,,0.00,weatherlink.com 1.10,2013-02-20 13:10:00,
2013-02-20 08:24:00,62.4,54.0,30.13,NNE,18,5.0,-999.0,75,-99.99,,,0.00,weatherlink.com 1.10,2013-02-20 13:24:00,
2013-02-20 08:39:00,62.8,54.0,30.13,NE,46,2.0,-999.0,73,-99.99,,,0.00,weatherlink.com 1.10,2013-02-20 13:39:00,
2013-02-20 08:54:00,62.7,53.0,30.13,NE,40,5.0,-999.0,71,-99.99,,,0.00,weatherlink.com 1.10,2013-02-20 13:54:00,
2013-02-20 09:09:00,62.7,53.0,30.13,North,360,1.0,-999.0,71,-99.99,,,0.00,weatherlink.com 1.10,2013-02-20 14:09:00,
2013-02-20 09:24:00,63.3,54.0,30.13,NNE,30,6.0,-999.0,71,-99.99,,,0.00,weatherlink.com 1.10,2013-02-20 14:24:00,
2013-02-20 09:39:00,63.4,54.0,30.13,NE,55,2.0,-999.0,71,-99.99,,,0.00,weatherlink.com 1.10,2013-02-20 14:39:00,
2013-02-20 09:54:00,63.4,54.0,30.14,East,96,5.0,-999.0,71,-99.99,,,0.00,weatherlink.com 1.10,2013-02-20 14:54:00,
2013-02-20 10:09:00,63.8,54.0,30.13,NE,48,1.0,-999.0,71,-99.99,,,0.00,weatherlink.com 1.10,2013-02-20 15:09:00,
2013-02-20 10:24:00,64.3,54.0,30.14,ENE,59,1.0,-999.0,70,-99.99,,,0.00,weatherlink.com 1.10,2013-02-20 15:24:00,
2013-02-20 10:39:00,64.7,54.0,30.14,East,91,3.0,-999.0,69,-99.99,,,0.00,weatherlink.com 1.10,2013-02-20 15:39:00,
2013-02-20 10:54:00,65.2,54.0,30.14,NE,42,4.0,-999.0,68,-99.99,,,0.00,weatherlink.com 1.10,2013-02-20 15:54:00,
2013-02-20 11:09:00,66.2,55.0,30.14,NE,50,8.0,-999.0,67,-99.99,,,0.00,weatherlink.com 1.10,2013-02-20 16:09:00,
2013-02-20 11:25:00,66.8,55.0,30.13,East,80,1.0,-999.0,67,-99.99,,,0.00,weatherlink.com 1.10,2013-02-20 16:25:00,
2013-02-20 11:39:00,67.5,56.0,30.12,ENE,72,3.0,-999.0,66,-99.99,,,0.00,weatherlink.com 1.10,2013-02-20 16:39:00,
2013-02-20 11:54:00,68.3,56.0,30.11,ESE,104,2.0,-999.0,66,-99.99,,,0.00,weatherlink.com 1.10,2013-02-20 16:54:00,
2013-02-20 12:09:00,69.0,57.0,30.10,ENE,74,2.0,-999.0,65,-99.99,,,0.00,weatherlink.com 1.10,2013-02-20 17:09:00,
2013-02-20 12:24:00,71.1,58.0,30.09,East,85,3.0,-999.0,63,-99.99,,,0.00,weatherlink.com 1.10,2013-02-20 17:24:00,
2013-02-20 12:39:00,71.6,58.0,30.08,NE,44,0.0,-999.0,63,-99.99,,,0.00,weatherlink.com 1.10,2013-02-20 17:39:00,
2013-02-20 12:54:00,71.5,59.0,30.07,SE,133,0.0,-999.0,64,-99.99,,,0.00,weatherlink.com 1.10,2013-02-20 17:54:00,
2013-02-20 13:09:00,72.7,58.0,30.06,East,101,4.0,-999.0,61,-99.99,,,0.00,weatherlink.com 1.10,2013-02-20 18:09:00,
2013-02-20 13:24:00,73.3,59.0,30.05,East,83,3.0,-999.0,61,-99.99,,,0.00,weatherlink.com 1.10,2013-02-20 18:24:00,
2013-02-20 13:40:00,74.3,59.0,30.05,East,99,0.0,-999.0,60,-99.99,,,0.00,weatherlink.com 1.10,2013-02-20 18:40:00,
2013-02-20 13:54:00,74.3,59.0,30.04,ENE,63,1.0,-999.0,60,-99.99,,,0.00,weatherlink.com 1.10,2013-02-20 18:54:00,
2013-02-20 14:09:00,75.0,60.0,30.03,South,184,0.0,-999.0,59,-99.99,,,0.00,weatherlink.com 1.10,2013-02-20 19:09:00,
2013-02-20 14:24:00,74.8,60.0,30.03,SSW,192,3.0,-999.0,60,-99.99,,,0.00,weatherlink.com 1.10,2013-02-20 19:24:00,
2013-02-20 14:39:00,74.7,60.0,30.03,NNE,15,5.0,-999.0,60,-99.99,,,0.00,weatherlink.com 1.10,2013-02-20 19:39:00,
2013-02-20 14:54:00,74.9,60.0,30.03,East,94,3.0,-999.0,61,-99.99,,,0.00,weatherlink.com 1.10,2013-02-20 19:54:00,
2013-02-20 15:09:00,75.3,60.0,30.03,SSE,161,2.0,-999.0,59,-99.99,,,0.00,weatherlink.com 1.10,2013-02-20 20:09:00,
2013-02-20 15:24:00,76.2,60.0,30.02,SW,222,0.0,-999.0,58,-99.99,,,0.00,weatherlink.com 1.10,2013-02-20 20:24:00,
2013-02-20 15:39:00,76.4,60.0,30.01,South,169,2.0,-999.0,58,-99.99,,,0.00,weatherlink.com 1.10,2013-02-20 20:39:00,
2013-02-20 15:54:00,75.4,59.0,30.02,ESE,103,9.0,-999.0,57,-99.99,,,0.00,weatherlink.com 1.10,2013-02-20 20:54:00,
2013-02-20 16:09:00,72.1,58.0,30.03,East,91,6.0,-999.0,61,-99.99,,,0.00,weatherlink.com 1.10,2013-02-20 21:09:00,
2013-02-20 16:24:00,71.1,58.0,30.04,East,98,5.0,-999.0,63,-99.99,,,0.00,weatherlink.com 1.10,2013-02-20 21:24:00,
2013-02-20 16:39:00,70.8,57.0,30.04,ENE,78,7.0,-999.0,63,-99.99,,,0.00,weatherlink.com 1.10,2013-02-20 21:39:00,
2013-02-20 16:54:00,70.5,57.0,30.05,NE,49,6.0,-999.0,63,-99.99,,,0.00,weatherlink.com 1.10,2013-02-20 21:54:00,
2013-02-20 17:10:00,70.1,57.0,30.05,NNE,33,7.0,-999.0,63,-99.99,,,0.00,weatherlink.com 1.10,2013-02-20 22:10:00,
2013-02-20 17:24:00,69.8,57.0,30.06,NE,54,4.0,-999.0,63,-99.99,,,0.00,weatherlink.com 1.10,2013-02-20 22:24:00,
2013-02-20 17:40:00,69.5,56.0,30.07,ENE,74,4.0,-999.0,63,-99.99,,,0.00,weatherlink.com 1.10,2013-02-20 22:40:00,
2013-02-20 17:54:00,68.3,56.0,30.08,East,96,9.0,-999.0,64,-99.99,,,0.00,weatherlink.com 1.10,2013-02-20 22:54:00,
2013-02-20 18:09:00,66.7,55.0,30.07,East,101,7.0,-999.0,67,-99.99,,,0.00,weatherlink.com 1.10,2013-02-20 23:09:00,
2013-02-20 18:24:00,65.8,55.0,30.07,ENE,64,2.0,-999.0,68,-99.99,,,0.00,weatherlink.com 1.10,2013-02-20 23:24:00,
2013-02-20 18:39:00,65.0,55.0,30.06,East,88,5.0,-999.0,70,-99.99,,,0.00,weatherlink.com 1.10,2013-02-20 23:39:00,
2013-02-20 18:54:00,64.3,55.0,30.07,East,88,2.0,-999.0,71,-99.99,,,0.00,weatherlink.com 1.10,2013-02-20 23:54:00,
2013-02-20 19:09:00,63.9,55.0,30.08,NE,45,2.0,-999.0,72,-99.99,,,0.00,weatherlink.com 1.10,2013-02-21 00:09:00,
2013-02-20 19:24:00,63.6,54.0,30.08,NE,49,4.0,-999.0,72,-99.99,,,0.00,weatherlink.com 1.10,2013-02-21 00:24:00,
2013-02-20 19:39:00,63.2,54.0,30.09,NE,38,4.0,-999.0,73,-99.99,,,0.00,weatherlink.com 1.10,2013-02-21 00:39:00,
2013-02-20 19:54:00,63.0,54.0,30.09,ENE,65,4.0,-999.0,73,-99.99,,,0.00,weatherlink.com 1.10,2013-02-21 00:54:00,
2013-02-20 20:09:00,62.5,54.0,30.09,NE,53,1.0,-999.0,74,-99.99,,,0.00,weatherlink.com 1.10,2013-02-21 01:09:00,
2013-02-20 20:24:00,62.2,54.0,30.10,NE,43,8.0,-999.0,74,-99.99,,,0.00,weatherlink.com 1.10,2013-02-21 01:24:00,
2013-02-20 20:39:00,62.2,54.0,30.11,NE,44,5.0,-999.0,75,-99.99,,,0.00,weatherlink.com 1.10,2013-02-21 01:39:00,
2013-02-20 20:56:00,62.1,54.0,30.10,ENE,78,4.0,-999.0,75,-99.99,,,0.00,weatherlink.com 1.10,2013-02-21 01:56:00,
2013-02-20 21:09:00,62.1,54.0,30.11,ENE,78,3.0,-999.0,75,-99.99,,,0.00,weatherlink.com 1.10,2013-02-21 02:09:00,
2013-02-20 21:24:00,62.1,54.0,30.10,NE,46,8.0,-999.0,75,-99.99,,,0.00,weatherlink.com 1.10,2013-02-21 02:24:00,
2013-02-20 21:39:00,62.0,54.0,30.11,NE,42,7.0,-999.0,75,-99.99,,,0.00,weatherlink.com 1.10,2013-02-21 02:39:00,
2013-02-20 21:54:00,62.0,54.0,30.11,NE,55,4.0,-999.0,75,-99.99,,,0.00,weatherlink.com 1.10,2013-02-21 02:54:00,
2013-02-20 22:09:00,61.8,54.0,30.11,NE,36,3.0,-999.0,76,-99.99,,,0.00,weatherlink.com 1.10,2013-02-21 03:09:00,
2013-02-20 22:24:00,61.7,54.0,30.11,NE,41,3.0,-999.0,77,-99.99,,,0.00,weatherlink.com 1.10,2013-02-21 03:24:00,
2013-02-20 22:39:00,61.5,55.0,30.11,ENE,59,4.0,-999.0,78,-99.99,,,0.00,weatherlink.com 1.10,2013-02-21 03:39:00,
2013-02-20 22:54:00,61.3,55.0,30.10,NE,53,1.0,-999.0,79,-99.99,,,0.00,weatherlink.com 1.10,2013-02-21 03:54:00,
2013-02-20 23:09:00,60.9,55.0,30.09,NE,53,1.0,-999.0,80,-99.99,,,0.00,weatherlink.com 1.10,2013-02-21 04:09:00,
2013-02-20 23:24:00,60.7,55.0,30.09,NE,53,0.0,-999.0,81,-99.99,,,0.00,weatherlink.com 1.10,2013-02-21 04:24:00,
2013-02-20 23:39:00,60.5,55.0,30.08,East,88,0.0,-999.0,81,-99.99,,,0.00,weatherlink.com 1.10,2013-02-21 04:39:00,
2013-02-20 23:57:00,60.3,55.0,30.08,East,88,0.0,-999.0,82,-99.99,,,0.00,weatherlink.com 1.10,2013-02-21 04:57:00,